createdAt,value
2019-02-19T00:00:06.008Z,71.67
2019-02-19T00:01:06.130Z,71.77
2019-02-19T00:02:06.270Z,71.96
2019-02-19T00:03:06.397Z,72.25
2019-02-19T00:04:06.525Z,72.15
2019-02-19T00:05:06.644Z,72.06
2019-02-19T00:06:06.772Z,72.06
2019-02-19T00:07:06.918Z,72.34
2019-02-19T00:08:07.041Z,71.96
2019-02-19T00:09:07.168Z,72.25
2019-02-19T00:10:07.305Z,72.02
2019-02-19T00:11:07.417Z,72.06
2019-02-19T00:12:07.535Z,72.02
2019-02-19T00:13:07.678Z,72.15
2019-02-19T00:14:07.810Z,72.06
2019-02-19T00:15:08.711Z,72.25
2019-02-19T00:16:08.064Z,71.92
2019-02-19T00:17:08.190Z,72.21
2019-02-19T00:18:08.318Z,72.40
2019-02-19T00:19:08.444Z,72.30
2019-02-19T00:20:08.575Z,72.11
2019-02-19T00:21:08.698Z,72.40
2019-02-19T00:22:08.821Z,72.15
2019-02-19T00:23:08.943Z,72.59
2019-02-19T00:24:09.071Z,72.40
2019-02-19T00:25:09.195Z,72.30
2019-02-19T00:26:09.321Z,72.25
2019-02-19T00:27:09.450Z,72.49
2019-02-19T00:28:09.579Z,72.02
2019-02-19T00:29:09.695Z,72.49
2019-02-19T00:30:09.832Z,73.07
2019-02-19T00:31:09.980Z,72.91
2019-02-19T00:32:10.115Z,73.00
2019-02-19T00:33:10.227Z,72.91
2019-02-19T00:34:10.386Z,72.78
2019-02-19T00:35:10.528Z,72.21
2019-02-19T00:36:10.636Z,72.25
2019-02-19T00:37:10.773Z,72.25
2019-02-19T00:38:10.891Z,72.63
2019-02-19T00:39:11.019Z,72.63
2019-02-19T00:40:11.150Z,72.44
2019-02-19T00:41:11.296Z,72.44
2019-02-19T00:42:11.418Z,72.25
2019-02-19T00:43:11.545Z,72.25
2019-02-19T00:44:11.694Z,72.15
2019-02-19T00:45:16.705Z,72.25
2019-02-19T00:46:11.931Z,72.25
2019-02-19T00:47:12.064Z,72.34
2019-02-19T00:48:12.252Z,72.15
2019-02-19T00:49:12.360Z,72.72
2019-02-19T00:50:12.494Z,72.63
2019-02-19T00:51:12.702Z,72.30
2019-02-19T00:52:12.749Z,72.15
2019-02-19T00:53:12.869Z,72.06
2019-02-19T00:54:13.016Z,72.34
2019-02-19T00:55:13.103Z,72.63
2019-02-19T00:56:13.224Z,72.25
2019-02-19T00:57:13.349Z,72.81
2019-02-19T00:58:13.473Z,73.10
2019-02-19T00:59:13.598Z,73.00
2019-02-19T01:00:13.727Z,72.88
2019-02-19T01:01:13.935Z,73.10
2019-02-19T01:02:13.998Z,72.15
2019-02-19T01:03:14.121Z,72.63
2019-02-19T01:04:14.237Z,72.15
2019-02-19T01:05:14.353Z,72.25
2019-02-19T01:06:14.514Z,72.59
2019-02-19T01:07:14.637Z,72.49
2019-02-19T01:08:14.762Z,72.40
2019-02-19T01:09:14.909Z,72.40
2019-02-19T01:10:15.031Z,72.40
2019-02-19T01:11:15.153Z,72.40
2019-02-19T01:12:15.284Z,72.40
2019-02-19T01:13:15.428Z,72.59
2019-02-19T01:14:15.552Z,72.40
2019-02-19T01:15:15.677Z,72.21
2019-02-19T01:16:15.836Z,72.11
2019-02-19T01:17:15.941Z,72.11
2019-02-19T01:18:16.071Z,72.49
2019-02-19T01:19:16.197Z,72.49
2019-02-19T01:20:16.348Z,72.59
2019-02-19T01:21:16.505Z,72.40
2019-02-19T01:22:16.639Z,72.40
2019-02-19T01:23:16.782Z,72.30
2019-02-19T01:24:16.914Z,71.92
2019-02-19T01:25:17.039Z,72.21
2019-02-19T01:26:17.170Z,72.11
2019-02-19T01:27:17.334Z,72.11
2019-02-19T01:28:17.452Z,72.59
2019-02-19T01:29:17.574Z,72.40
2019-02-19T01:30:17.699Z,72.49
2019-02-19T01:31:17.825Z,72.59
2019-02-19T01:32:17.987Z,72.11
2019-02-19T01:33:18.073Z,72.21
2019-02-19T01:34:18.199Z,71.92
2019-02-19T01:35:18.322Z,72.02
2019-02-19T01:36:18.450Z,71.55
2019-02-19T01:37:18.583Z,71.45
2019-02-19T01:38:18.730Z,71.64
2019-02-19T01:39:18.883Z,71.83
2019-02-19T01:40:19.005Z,72.02
2019-02-19T01:41:19.156Z,72.02
2019-02-19T01:42:19.282Z,72.40
2019-02-19T01:43:19.402Z,72.40
2019-02-19T01:44:19.527Z,72.59
2019-02-19T01:45:19.651Z,72.49
2019-02-19T01:46:19.840Z,72.59
2019-02-19T01:47:19.918Z,72.59
2019-02-19T01:48:20.049Z,72.40
2019-02-19T01:49:20.176Z,72.30
2019-02-19T01:50:20.298Z,72.59
2019-02-19T01:51:20.447Z,72.49
2019-02-19T01:52:20.571Z,72.30
2019-02-19T01:53:20.678Z,72.59
2019-02-19T01:54:20.804Z,72.40
2019-02-19T01:55:21.015Z,72.21
2019-02-19T01:56:21.058Z,72.40
2019-02-19T01:57:21.183Z,72.30
2019-02-19T01:58:21.308Z,73.07
2019-02-19T01:59:21.497Z,72.88
2019-02-19T02:00:21.538Z,72.88
2019-02-19T02:01:21.666Z,73.25
2019-02-19T02:02:21.830Z,73.16
2019-02-19T02:03:21.914Z,72.78
2019-02-19T02:04:22.042Z,72.88
2019-02-19T02:05:22.172Z,72.88
2019-02-19T02:06:22.308Z,72.88
2019-02-19T02:07:22.426Z,73.07
2019-02-19T02:08:22.557Z,72.88
2019-02-19T02:09:22.686Z,73.16
2019-02-19T02:10:22.804Z,72.64
2019-02-19T02:11:22.952Z,72.93
2019-02-19T02:12:23.075Z,73.03
2019-02-19T02:13:23.217Z,73.79
2019-02-19T02:14:23.320Z,73.97
2019-02-19T02:15:23.463Z,73.50
2019-02-19T02:16:23.584Z,73.69
2019-02-19T02:17:23.708Z,73.97
2019-02-19T02:18:23.828Z,73.79
2019-02-19T02:19:23.949Z,74.07
2019-02-19T02:20:24.083Z,73.88
2019-02-19T02:21:24.226Z,73.88
2019-02-19T02:22:24.351Z,73.60
2019-02-19T02:23:24.487Z,73.88
2019-02-19T02:24:24.630Z,73.88
2019-02-19T02:25:24.764Z,73.79
2019-02-19T02:26:24.879Z,73.79
2019-02-19T02:27:25.008Z,74.16
2019-02-19T02:28:25.129Z,74.35
2019-02-19T02:29:25.255Z,74.26
2019-02-19T02:30:25.386Z,74.07
2019-02-19T02:31:25.538Z,74.45
2019-02-19T02:32:25.641Z,74.07
2019-02-19T02:33:25.768Z,73.50
2019-02-19T02:34:25.887Z,73.88
2019-02-19T02:35:26.024Z,73.88
2019-02-19T02:36:26.149Z,74.07
2019-02-19T02:37:26.271Z,73.60
2019-02-19T02:38:26.414Z,73.41
2019-02-19T02:39:26.533Z,73.31
2019-02-19T02:40:26.665Z,73.60
2019-02-19T02:41:26.821Z,73.60
2019-02-19T02:42:26.945Z,73.60
2019-02-19T02:43:27.064Z,72.93
2019-02-19T02:44:27.186Z,72.93
2019-02-19T02:45:27.333Z,72.64
2019-02-19T02:46:27.458Z,72.64
2019-02-19T02:47:27.582Z,72.84
2019-02-19T02:48:27.716Z,73.50
2019-02-19T02:49:27.873Z,73.97
2019-02-19T02:50:28.000Z,73.97
2019-02-19T02:51:28.123Z,73.79
2019-02-19T02:52:28.264Z,73.88
2019-02-19T02:53:28.397Z,73.97
2019-02-19T02:54:28.518Z,74.16
2019-02-19T02:55:28.656Z,73.97
2019-02-19T02:56:28.776Z,73.50
2019-02-19T02:57:28.898Z,73.88
2019-02-19T02:58:29.026Z,73.69
2019-02-19T02:59:29.155Z,73.60
2019-02-19T03:00:29.274Z,73.97
2019-02-19T03:01:29.403Z,73.88
2019-02-19T03:02:29.541Z,73.88
2019-02-19T03:03:29.675Z,73.97
2019-02-19T03:04:29.800Z,73.97
2019-02-19T03:05:29.939Z,73.88
2019-02-19T03:06:30.064Z,73.97
2019-02-19T03:07:30.186Z,73.97
2019-02-19T03:08:30.311Z,73.69
2019-02-19T03:09:30.472Z,73.79
2019-02-19T03:10:30.595Z,73.60
2019-02-19T03:11:30.712Z,73.88
2019-02-19T03:12:30.839Z,74.07
2019-02-19T03:13:30.954Z,74.35
2019-02-19T03:14:31.079Z,74.35
2019-02-19T03:15:31.256Z,74.16
2019-02-19T03:16:31.376Z,73.97
2019-02-19T03:17:31.510Z,73.50
2019-02-19T03:18:31.629Z,74.35
2019-02-19T03:19:31.773Z,73.97
2019-02-19T03:20:31.895Z,73.97
2019-02-19T03:21:32.024Z,74.07
2019-02-19T03:22:32.141Z,74.54
2019-02-19T03:23:32.284Z,74.16
2019-02-19T03:24:32.408Z,73.60
2019-02-19T03:25:32.538Z,73.69
2019-02-19T03:26:32.661Z,73.88
2019-02-19T03:27:32.795Z,73.97
2019-02-19T03:28:32.914Z,73.97
2019-02-19T03:29:33.043Z,74.35
2019-02-19T03:30:33.169Z,73.97
2019-02-19T03:31:33.305Z,74.45
2019-02-19T03:32:33.460Z,73.88
2019-02-19T03:33:33.588Z,74.45
2019-02-19T03:34:33.706Z,74.64
2019-02-19T03:35:33.909Z,74.35
2019-02-19T03:36:33.985Z,74.16
2019-02-19T03:37:34.108Z,74.35
2019-02-19T03:38:34.228Z,74.07
2019-02-19T03:39:34.388Z,74.26
2019-02-19T03:40:34.511Z,74.54
2019-02-19T03:41:34.637Z,74.45
2019-02-19T03:42:34.781Z,73.88
2019-02-19T03:43:34.888Z,73.97
2019-02-19T03:44:35.001Z,74.54
2019-02-19T03:45:35.129Z,74.54
2019-02-19T03:46:35.275Z,74.83
2019-02-19T03:47:35.411Z,74.64
2019-02-19T03:48:35.537Z,74.92
2019-02-19T03:49:35.661Z,75.40
2019-02-19T03:50:35.788Z,75.21
2019-02-19T03:51:35.944Z,75.02
2019-02-19T03:52:36.055Z,75.02
2019-02-19T03:53:36.187Z,74.83
2019-02-19T03:54:36.302Z,75.02
2019-02-19T03:55:36.450Z,74.92
2019-02-19T03:56:36.604Z,75.31
2019-02-19T03:57:36.725Z,75.40
2019-02-19T03:58:36.877Z,75.40
2019-02-19T03:59:37.002Z,74.92
2019-02-19T04:00:37.131Z,75.31
2019-02-19T04:01:37.257Z,75.31
2019-02-19T04:02:37.422Z,74.83
2019-02-19T04:03:37.528Z,74.83
2019-02-19T04:04:37.659Z,75.11
2019-02-19T04:05:37.785Z,75.02
2019-02-19T04:06:37.936Z,74.92
2019-02-19T04:07:38.045Z,74.83
2019-02-19T04:08:38.178Z,74.73
2019-02-19T04:09:38.336Z,74.83
2019-02-19T04:10:38.453Z,75.11
2019-02-19T04:11:38.578Z,75.02
2019-02-19T04:12:38.705Z,75.02
2019-02-19T04:13:38.846Z,75.31
2019-02-19T04:14:38.957Z,75.11
2019-02-19T04:15:39.178Z,74.73
2019-02-19T04:16:39.188Z,74.64
2019-02-19T04:17:39.327Z,74.73
2019-02-19T04:18:39.449Z,74.45
2019-02-19T04:19:39.576Z,74.92
2019-02-19T04:20:39.699Z,75.31
2019-02-19T04:21:39.827Z,75.49
2019-02-19T04:22:39.964Z,75.21
2019-02-19T04:23:40.079Z,74.83
2019-02-19T04:24:40.213Z,75.02
2019-02-19T04:25:40.330Z,75.02
2019-02-19T04:26:40.462Z,75.21
2019-02-19T04:27:40.582Z,75.40
2019-02-19T04:28:40.708Z,75.40
2019-02-19T04:29:40.835Z,75.31
2019-02-19T04:30:40.964Z,75.40
2019-02-19T04:31:41.093Z,75.49
2019-02-19T04:32:41.218Z,75.49
2019-02-19T04:33:41.335Z,75.87
2019-02-19T04:34:41.465Z,75.68
2019-02-19T04:35:41.586Z,75.49
2019-02-19T04:36:41.714Z,75.49
2019-02-19T04:37:41.839Z,75.31
2019-02-19T04:38:41.968Z,75.40
2019-02-19T04:39:42.091Z,75.21
2019-02-19T04:40:42.217Z,75.40
2019-02-19T04:41:42.347Z,75.21
2019-02-19T04:42:42.474Z,75.31
2019-02-19T04:43:42.596Z,75.59
2019-02-19T04:44:42.719Z,75.21
2019-02-19T04:45:42.847Z,75.59
2019-02-19T04:46:42.974Z,75.40
2019-02-19T04:47:43.097Z,75.31
2019-02-19T04:48:43.226Z,75.49
2019-02-19T04:49:43.360Z,75.31
2019-02-19T04:50:43.478Z,75.21
2019-02-19T04:51:43.609Z,75.40
2019-02-19T04:52:43.734Z,75.11
2019-02-19T04:53:43.861Z,75.68
2019-02-19T04:54:43.983Z,76.06
2019-02-19T04:55:44.111Z,75.96
2019-02-19T04:56:44.233Z,75.96
2019-02-19T04:57:44.360Z,75.96
2019-02-19T04:58:44.489Z,75.49
2019-02-19T04:59:44.609Z,76.06
2019-02-19T05:00:44.736Z,75.59
2019-02-19T05:01:44.858Z,75.78
2019-02-19T05:02:45.040Z,75.87
2019-02-19T05:03:45.104Z,75.78
2019-02-19T05:04:45.232Z,75.96
2019-02-19T05:05:45.356Z,76.06
2019-02-19T05:06:45.484Z,75.96
2019-02-19T05:07:45.607Z,75.78
2019-02-19T05:08:45.738Z,75.68
2019-02-19T05:09:45.867Z,75.87
2019-02-19T05:10:45.998Z,76.06
2019-02-19T05:11:46.113Z,75.87
2019-02-19T05:12:46.238Z,75.93
2019-02-19T05:13:46.366Z,76.31
2019-02-19T05:14:46.489Z,76.44
2019-02-19T05:15:46.612Z,76.73
2019-02-19T05:16:46.741Z,76.63
2019-02-19T05:17:46.861Z,76.82
2019-02-19T05:18:46.986Z,76.92
2019-02-19T05:19:47.104Z,76.82
2019-02-19T05:20:47.233Z,76.82
2019-02-19T05:21:47.359Z,76.82
2019-02-19T05:22:47.485Z,76.44
2019-02-19T05:23:47.609Z,76.34
2019-02-19T05:24:47.732Z,76.44
2019-02-19T05:25:47.862Z,76.63
2019-02-19T05:26:47.990Z,76.03
2019-02-19T05:27:48.148Z,76.34
2019-02-19T05:28:48.267Z,75.96
2019-02-19T05:29:48.396Z,76.06
2019-02-19T05:30:48.527Z,75.74
2019-02-19T05:31:48.664Z,75.78
2019-02-19T05:32:48.790Z,75.96
2019-02-19T05:33:48.918Z,75.87
2019-02-19T05:34:49.041Z,76.06
2019-02-19T05:35:49.178Z,76.44
2019-02-19T05:36:49.309Z,76.31
2019-02-19T05:37:49.425Z,76.25
2019-02-19T05:38:49.565Z,76.34
2019-02-19T05:39:49.738Z,76.25
2019-02-19T05:40:49.863Z,76.44
2019-02-19T05:41:49.987Z,76.44
2019-02-19T05:42:50.113Z,76.25
2019-02-19T05:43:50.252Z,76.44
2019-02-19T05:44:50.369Z,76.25
2019-02-19T05:45:50.500Z,76.34
2019-02-19T05:46:50.623Z,76.34
2019-02-19T05:47:50.741Z,76.34
2019-02-19T05:48:50.867Z,75.78
2019-02-19T05:49:50.995Z,76.34
2019-02-19T05:50:51.155Z,76.34
2019-02-19T05:51:51.261Z,75.78
2019-02-19T05:52:51.390Z,76.21
2019-02-19T05:53:51.512Z,76.44
2019-02-19T05:54:51.645Z,76.25
2019-02-19T05:55:51.767Z,76.15
2019-02-19T05:56:51.883Z,76.34
2019-02-19T05:57:52.016Z,76.34
2019-02-19T05:58:52.188Z,76.34
2019-02-19T05:59:52.304Z,76.44
2019-02-19T06:00:52.436Z,76.34
2019-02-19T06:01:52.595Z,76.25
2019-02-19T06:02:52.704Z,75.78
2019-02-19T06:03:52.897Z,75.68
2019-02-19T06:04:52.938Z,75.93
2019-02-19T06:05:53.028Z,75.74
2019-02-19T06:06:53.150Z,75.96
2019-02-19T06:07:53.293Z,75.68
2019-02-19T06:08:53.426Z,76.03
2019-02-19T06:09:53.541Z,76.06
2019-02-19T06:10:53.669Z,76.03
2019-02-19T06:11:53.864Z,75.78
2019-02-19T06:12:53.888Z,75.93
2019-02-19T06:13:53.980Z,76.40
2019-02-19T06:14:54.107Z,76.40
2019-02-19T06:15:54.258Z,76.40
2019-02-19T06:16:58.473Z,76.82
2019-02-19T06:17:54.506Z,76.73
2019-02-19T06:18:54.635Z,76.82
2019-02-19T06:19:54.793Z,76.44
2019-02-19T06:20:54.908Z,76.82
2019-02-19T06:21:55.031Z,76.63
2019-02-19T06:22:55.156Z,76.73
2019-02-19T06:23:55.286Z,76.92
2019-02-19T06:24:55.395Z,76.73
2019-02-19T06:25:55.538Z,76.87
2019-02-19T06:26:55.647Z,76.82
2019-02-19T06:27:55.807Z,76.63
2019-02-19T06:28:57.769Z,76.63
2019-02-19T06:29:56.046Z,76.82
2019-02-19T06:30:56.194Z,76.73
2019-02-19T06:31:56.317Z,76.73
2019-02-19T06:32:56.469Z,76.73
2019-02-19T06:33:56.588Z,76.82
2019-02-19T06:34:56.716Z,77.11
2019-02-19T06:35:56.943Z,77.39
2019-02-19T06:36:56.985Z,77.77
2019-02-19T06:37:57.114Z,77.67
2019-02-19T06:38:57.256Z,77.86
2019-02-19T06:39:57.449Z,77.58
2019-02-19T06:40:57.521Z,77.77
2019-02-19T06:41:57.648Z,77.58
2019-02-19T06:42:57.795Z,77.48
2019-02-19T06:43:57.911Z,77.67
2019-02-19T06:44:58.036Z,77.58
2019-02-19T06:45:58.183Z,77.48
2019-02-19T06:47:06.501Z,77.67
2019-02-19T06:47:58.420Z,77.67
2019-02-19T06:48:58.558Z,77.58
2019-02-19T06:49:58.686Z,77.77
2019-02-19T06:50:58.819Z,77.58
2019-02-19T06:51:58.928Z,77.77
2019-02-19T06:52:59.096Z,78.34
2019-02-19T06:53:59.201Z,78.43
2019-02-19T06:54:59.327Z,78.72
2019-02-19T06:55:59.471Z,78.81
2019-02-19T06:56:59.583Z,78.62
2019-02-19T06:57:59.711Z,78.34
2019-02-19T06:58:59.833Z,77.86
2019-02-19T06:59:59.963Z,77.86
2019-02-19T07:01:00.087Z,78.15
2019-02-19T07:02:00.216Z,78.24
2019-02-19T07:03:00.341Z,78.05
2019-02-19T07:04:00.476Z,77.96
2019-02-19T07:05:00.595Z,78.15
2019-02-19T07:06:00.721Z,77.96
2019-02-19T07:07:00.841Z,77.96
2019-02-19T07:08:00.972Z,77.96
2019-02-19T07:09:01.100Z,78.24
2019-02-19T07:10:01.219Z,77.77
2019-02-19T07:11:01.357Z,77.96
2019-02-19T07:12:01.483Z,78.05
2019-02-19T07:13:01.603Z,78.15
2019-02-19T07:14:01.728Z,78.15
2019-02-19T07:15:01.856Z,78.05
2019-02-19T07:16:01.978Z,77.77
2019-02-19T07:17:02.112Z,77.67
2019-02-19T07:18:02.240Z,77.58
2019-02-19T07:19:02.352Z,77.96
2019-02-19T07:20:02.480Z,77.86
2019-02-19T07:21:02.606Z,77.86
2019-02-19T07:22:02.734Z,77.96
2019-02-19T07:23:02.858Z,77.77
2019-02-19T07:24:04.620Z,78.09
2019-02-19T07:25:03.123Z,77.77
2019-02-19T07:26:03.243Z,77.67
2019-02-19T07:27:03.368Z,77.67
2019-02-19T07:28:03.499Z,77.48
2019-02-19T07:29:03.626Z,77.77
2019-02-19T07:30:03.754Z,77.58
2019-02-19T07:31:03.873Z,77.48
2019-02-19T07:32:04.004Z,78.09
2019-02-19T07:33:04.133Z,78.00
2019-02-19T07:34:04.262Z,78.19
2019-02-19T07:35:04.380Z,77.71
2019-02-19T07:36:04.506Z,77.90
2019-02-19T07:37:04.632Z,77.90
2019-02-19T07:38:04.761Z,77.81
2019-02-19T07:39:04.888Z,77.90
2019-02-19T07:40:05.014Z,78.09
2019-02-19T07:41:05.143Z,78.19
2019-02-19T07:42:05.268Z,79.14
2019-02-19T07:43:05.390Z,79.71
2019-02-19T07:44:05.516Z,79.52
2019-02-19T07:45:05.645Z,79.71
2019-02-19T07:46:05.778Z,79.14
2019-02-19T07:47:05.918Z,78.66
2019-02-19T07:48:06.041Z,78.19
2019-02-19T07:49:06.146Z,78.09
2019-02-19T07:50:06.273Z,78.28
2019-02-19T07:51:06.410Z,78.00
2019-02-19T07:52:06.533Z,77.90
2019-02-19T07:53:06.662Z,78.28
2019-02-19T07:54:06.789Z,78.66
2019-02-19T07:55:06.936Z,78.75
2019-02-19T07:56:07.061Z,79.52
2019-02-19T07:57:07.183Z,79.61
2019-02-19T07:58:07.325Z,79.71
2019-02-19T07:59:07.440Z,79.52
2019-02-19T08:00:07.566Z,79.33
2019-02-19T08:01:07.693Z,78.66
2019-02-19T08:02:07.826Z,78.38
2019-02-19T08:03:07.976Z,78.56
2019-02-19T08:04:08.089Z,78.56
2019-02-19T08:05:08.219Z,79.52
2019-02-19T08:06:08.363Z,79.61
2019-02-19T08:07:08.480Z,79.80
2019-02-19T08:08:08.603Z,79.61
2019-02-19T08:09:08.732Z,80.08
2019-02-19T08:10:08.874Z,80.37
2019-02-19T08:11:09.001Z,79.90
2019-02-19T08:12:09.129Z,80.56
2019-02-19T08:13:09.263Z,80.65
2019-02-19T08:14:09.407Z,81.13
2019-02-19T08:15:09.531Z,80.65
2019-02-19T08:16:09.658Z,80.84
2019-02-19T08:17:09.784Z,81.13
2019-02-19T08:18:09.915Z,80.46
2019-02-19T08:19:10.022Z,81.23
2019-02-19T08:20:15.734Z,81.04
2019-02-19T08:21:10.280Z,81.13
2019-02-19T08:22:10.412Z,81.13
2019-02-19T08:23:10.549Z,81.23
2019-02-19T08:24:10.685Z,81.32
2019-02-19T08:25:10.807Z,81.32
2019-02-19T08:26:10.937Z,81.04
2019-02-19T08:27:11.058Z,81.32
2019-02-19T08:28:11.200Z,81.51
2019-02-19T08:29:13.759Z,81.32
2019-02-19T08:30:11.444Z,81.51
2019-02-19T08:31:11.572Z,81.98
2019-02-19T08:32:11.701Z,81.98
2019-02-19T08:33:11.828Z,82.04
2019-02-19T08:34:11.957Z,82.70
2019-02-19T08:35:12.089Z,83.08
2019-02-19T08:36:12.214Z,82.98
2019-02-19T08:37:12.345Z,83.55
2019-02-19T08:38:12.467Z,83.27
2019-02-19T08:39:12.595Z,83.84
2019-02-19T08:40:12.727Z,83.74
2019-02-19T08:41:12.855Z,83.94
2019-02-19T08:42:13.052Z,84.26
2019-02-19T08:43:13.122Z,83.59
2019-02-19T08:44:13.288Z,83.88
2019-02-19T08:45:13.400Z,83.50
2019-02-19T08:46:13.523Z,83.69
2019-02-19T08:47:13.650Z,83.22
2019-02-19T08:48:13.782Z,83.88
2019-02-19T08:49:13.903Z,83.12
2019-02-19T08:50:14.042Z,83.31
2019-02-19T08:51:14.165Z,83.22
2019-02-19T08:52:14.294Z,83.22
2019-02-19T08:53:14.420Z,83.22
2019-02-19T08:54:14.568Z,83.12
2019-02-19T08:55:14.677Z,83.12
2019-02-19T08:56:14.810Z,83.12
2019-02-19T08:57:14.941Z,83.03
2019-02-19T08:58:15.117Z,83.22
2019-02-19T08:59:15.213Z,83.40
2019-02-19T09:00:15.340Z,83.50
2019-02-19T09:01:15.494Z,83.03
2019-02-19T09:02:15.608Z,82.84
2019-02-19T09:03:16.911Z,82.97
2019-02-19T09:04:15.860Z,82.97
2019-02-19T09:05:16.029Z,82.97
2019-02-19T09:06:16.142Z,83.12
2019-02-19T09:07:16.275Z,82.59
2019-02-19T09:08:16.400Z,82.69
2019-02-19T09:09:16.546Z,82.93
2019-02-19T09:10:16.657Z,82.50
2019-02-19T09:11:16.788Z,82.97
2019-02-19T09:12:16.912Z,83.07
2019-02-19T09:13:17.037Z,82.74
2019-02-19T09:14:17.167Z,82.88
2019-02-19T09:15:17.291Z,82.88
2019-02-19T09:16:17.418Z,82.74
2019-02-19T09:17:17.546Z,82.93
2019-02-19T09:18:17.672Z,82.88
2019-02-19T09:19:17.804Z,82.78
2019-02-19T09:20:17.938Z,82.69
2019-02-19T09:21:18.058Z,81.98
2019-02-19T09:22:18.189Z,82.08
2019-02-19T09:23:18.314Z,82.78
2019-02-19T09:24:18.437Z,82.69
2019-02-19T09:25:18.565Z,83.07
2019-02-19T09:26:18.686Z,82.97
2019-02-19T09:27:18.841Z,83.45
2019-02-19T09:28:18.964Z,83.64
2019-02-19T09:29:19.085Z,83.54
2019-02-19T09:30:19.220Z,83.26
2019-02-19T09:31:19.344Z,83.26
2019-02-19T09:32:19.474Z,83.54
2019-02-19T09:33:19.607Z,82.88
2019-02-19T09:34:19.725Z,83.45
2019-02-19T09:35:19.855Z,83.54
2019-02-19T09:36:19.984Z,83.73
2019-02-19T09:37:20.125Z,83.36
2019-02-19T09:38:20.250Z,83.45
2019-02-19T09:39:20.391Z,82.97
2019-02-19T09:40:20.505Z,83.73
2019-02-19T09:41:20.659Z,84.01
2019-02-19T09:42:20.756Z,83.92
2019-02-19T09:43:20.898Z,84.40
2019-02-19T09:44:21.025Z,84.63
2019-02-19T09:45:21.156Z,84.11
2019-02-19T09:46:21.279Z,85.01
2019-02-19T09:47:21.403Z,85.30
2019-02-19T09:48:21.537Z,85.68
2019-02-19T09:49:21.660Z,85.77
2019-02-19T09:50:21.791Z,86.24
2019-02-19T09:51:21.920Z,86.72
2019-02-19T09:52:22.046Z,86.34
2019-02-19T09:53:22.178Z,86.82
2019-02-19T09:54:22.316Z,86.34
2019-02-19T09:55:22.432Z,86.63
2019-02-19T09:56:22.565Z,85.96
2019-02-19T09:57:22.695Z,85.68
2019-02-19T09:58:22.823Z,85.68
2019-02-19T09:59:22.962Z,85.86
2019-02-19T10:00:23.071Z,85.86
2019-02-19T10:01:23.199Z,85.49
2019-02-19T10:02:23.334Z,85.68
2019-02-19T10:03:23.470Z,86.24
2019-02-19T10:04:23.603Z,86.63
2019-02-19T10:05:23.795Z,87.01
2019-02-19T10:06:23.915Z,87.01
2019-02-19T10:07:24.047Z,87.57
2019-02-19T10:08:24.174Z,87.48
2019-02-19T10:09:24.333Z,87.57
2019-02-19T10:10:24.476Z,88.05
2019-02-19T10:11:24.602Z,88.15
2019-02-19T10:12:24.742Z,88.62
2019-02-19T10:13:25.203Z,88.62
2019-02-19T10:14:24.993Z,89.19
2019-02-19T10:15:25.118Z,88.71
2019-02-19T10:16:25.257Z,89.86
2019-02-19T10:17:25.398Z,89.47
2019-02-19T10:18:25.508Z,89.67
2019-02-19T10:19:26.113Z,90.52
2019-02-19T10:20:25.767Z,90.05
2019-02-19T10:21:25.922Z,90.19
2019-02-19T10:22:26.042Z,90.56
2019-02-19T10:23:26.172Z,90.94
2019-02-19T10:24:26.331Z,91.04
2019-02-19T10:25:26.461Z,91.71
2019-02-19T10:26:26.591Z,91.71
2019-02-19T10:27:26.721Z,91.33
2019-02-19T10:28:26.868Z,90.94
2019-02-19T10:29:26.986Z,91.04
2019-02-19T10:30:27.115Z,91.13
2019-02-19T10:31:27.242Z,91.04
2019-02-19T10:32:27.397Z,91.04
2019-02-19T10:33:27.518Z,90.66
2019-02-19T10:34:27.646Z,90.47
2019-02-19T10:35:27.809Z,90.47
2019-02-19T10:36:27.931Z,89.71
2019-02-19T10:37:28.056Z,89.61
2019-02-19T10:38:28.172Z,88.85
2019-02-19T10:39:28.332Z,89.42
2019-02-19T10:40:28.445Z,89.23
2019-02-19T10:41:28.580Z,89.04
2019-02-19T10:42:28.712Z,88.85
2019-02-19T10:43:28.858Z,88.57
2019-02-19T10:44:28.976Z,88.19
2019-02-19T10:45:29.112Z,88.57
2019-02-19T10:46:29.264Z,88.61
2019-02-19T10:47:29.373Z,88.04
2019-02-19T10:48:29.508Z,87.90
2019-02-19T10:49:29.642Z,88.23
2019-02-19T10:50:29.776Z,88.00
2019-02-19T10:51:29.889Z,88.28
2019-02-19T10:52:30.033Z,88.71
2019-02-19T10:53:30.168Z,87.81
2019-02-19T10:54:30.324Z,88.09
2019-02-19T10:55:30.453Z,88.19
2019-02-19T10:56:30.584Z,88.57
2019-02-19T10:57:30.711Z,88.57
2019-02-19T10:58:30.872Z,88.95
2019-02-19T10:59:30.989Z,89.71
2019-02-19T11:00:31.126Z,90.47
2019-02-19T11:01:31.256Z,91.23
2019-02-19T11:02:31.398Z,90.66
2019-02-19T11:03:31.527Z,91.71
2019-02-19T11:04:31.683Z,91.61
2019-02-19T11:05:31.812Z,91.61
2019-02-19T11:06:31.934Z,91.80
2019-02-19T11:07:32.064Z,91.99
2019-02-19T11:08:32.222Z,91.37
2019-02-19T11:09:32.347Z,91.66
2019-02-19T11:10:32.481Z,91.56
2019-02-19T11:11:32.637Z,91.47
2019-02-19T11:12:32.771Z,91.85
2019-02-19T11:13:32.889Z,91.56
2019-02-19T11:14:33.033Z,91.56
2019-02-19T11:15:33.161Z,91.56
2019-02-19T11:16:33.289Z,91.85
2019-02-19T11:17:33.426Z,91.66
2019-02-19T11:18:33.564Z,91.85
2019-02-19T11:19:33.675Z,91.66
2019-02-19T11:20:33.835Z,91.66
2019-02-19T11:21:33.958Z,91.18
2019-02-19T11:22:34.091Z,91.08
2019-02-19T11:23:34.218Z,91.28
2019-02-19T11:24:34.370Z,90.99
2019-02-19T11:25:34.482Z,90.80
2019-02-19T11:26:34.619Z,90.70
2019-02-19T11:27:34.744Z,90.89
2019-02-19T11:28:34.873Z,90.47
2019-02-19T11:29:34.998Z,90.66
2019-02-19T11:30:35.135Z,90.47
2019-02-19T11:31:35.269Z,90.75
2019-02-19T11:32:35.429Z,89.89
2019-02-19T11:33:35.534Z,89.42
2019-02-19T11:34:35.665Z,89.42
2019-02-19T11:35:35.809Z,89.80
2019-02-19T11:36:35.926Z,89.61
2019-02-19T11:37:37.378Z,89.61
2019-02-19T11:38:36.182Z,89.42
2019-02-19T11:39:36.328Z,89.51
2019-02-19T11:40:36.453Z,88.89
2019-02-19T11:41:36.574Z,88.04
2019-02-19T11:42:36.711Z,87.46
2019-02-19T11:43:36.835Z,86.80
2019-02-19T11:44:36.972Z,86.99
2019-02-19T11:45:37.100Z,87.18
2019-02-19T11:46:37.240Z,87.94
2019-02-19T11:47:37.375Z,87.65
2019-02-19T11:48:37.497Z,87.37
2019-02-19T11:49:37.625Z,87.27
2019-02-19T11:50:37.763Z,86.90
2019-02-19T11:51:37.889Z,86.61
2019-02-19T11:52:38.014Z,86.61
2019-02-19T11:53:38.146Z,85.94
2019-02-19T11:54:38.301Z,86.32
2019-02-19T11:55:38.503Z,86.04
2019-02-19T11:56:38.588Z,86.70
2019-02-19T11:57:38.681Z,86.70
2019-02-19T11:58:38.801Z,86.32
2019-02-19T11:59:38.933Z,86.32
2019-02-19T12:00:39.066Z,86.61
2019-02-19T12:01:39.220Z,86.13
2019-02-19T12:02:39.346Z,86.13
2019-02-19T12:03:39.477Z,85.85
2019-02-19T12:04:39.608Z,85.66
2019-02-19T12:05:39.754Z,85.37
2019-02-19T12:06:39.868Z,84.80
2019-02-19T12:07:40.042Z,84.99
2019-02-19T12:08:40.154Z,85.47
2019-02-19T12:09:40.281Z,85.18
2019-02-19T12:10:40.426Z,84.33
2019-02-19T12:11:40.554Z,84.13
2019-02-19T12:12:40.671Z,83.80
2019-02-19T12:13:40.808Z,83.47
2019-02-19T12:14:40.990Z,83.98
2019-02-19T12:15:41.076Z,83.80
2019-02-19T12:16:41.209Z,82.84
2019-02-19T12:17:41.346Z,80.18
2019-02-19T12:18:46.129Z,79.60
2019-02-19T12:19:41.620Z,79.70
2019-02-19T12:20:41.775Z,79.41
2019-02-19T12:21:41.872Z,78.80
2019-02-19T12:22:42.023Z,78.80
2019-02-19T12:23:42.158Z,78.65
2019-02-19T12:24:42.288Z,78.14
2019-02-19T12:25:42.404Z,77.95
2019-02-19T12:26:42.530Z,77.51
2019-02-19T12:27:42.668Z,77.42
2019-02-19T12:28:42.794Z,77.22
2019-02-19T12:29:42.930Z,77.70
2019-02-19T12:30:43.051Z,76.94
2019-02-19T12:31:43.184Z,75.99
2019-02-19T12:32:43.323Z,75.42
2019-02-19T12:33:43.460Z,74.37
2019-02-19T12:34:43.603Z,74.21
2019-02-19T12:35:43.731Z,73.83
2019-02-19T12:36:43.861Z,74.02
2019-02-19T12:37:43.987Z,73.93
2019-02-19T12:38:44.116Z,73.83
2019-02-19T12:39:44.250Z,73.93
2019-02-19T12:40:44.386Z,73.93
2019-02-19T12:41:44.514Z,73.30
2019-02-19T12:42:44.669Z,71.30
2019-02-19T12:43:44.812Z,72.44
2019-02-19T12:44:44.939Z,72.50
2019-02-19T12:45:45.091Z,73.36
2019-02-19T12:46:45.203Z,72.41
2019-02-19T12:47:45.335Z,72.69
2019-02-19T12:48:45.469Z,72.88
2019-02-19T12:49:45.623Z,73.17
2019-02-19T12:50:45.748Z,74.02
2019-02-19T12:51:45.886Z,72.72
2019-02-19T12:52:46.029Z,71.96
2019-02-19T12:53:46.161Z,71.27